sensor_id;sensor_type;location;lat;lon;timestamp;temperature;humidity
1602;DHT22;794;48.592;9.634;2022-11-15T00:00:06;8.70;1.00
1602;DHT22;794;48.592;9.634;2022-11-15T00:05:01;8.70;1.00
1602;DHT22;794;48.592;9.634;2022-11-15T00:17:20;8.50;1.00
1602;DHT22;794;48.592;9.634;2022-11-15T00:22:14;8.70;1.00
1602;DHT22;794;48.592;9.634;2022-11-15T00:24:42;8.70;1.00
1602;DHT22;794;48.592;9.634;2022-11-15T00:32:04;8.80;1.00
1602;DHT22;794;48.592;9.634;2022-11-15T00:34:32;8.80;1.00
1602;DHT22;794;48.592;9.634;2022-11-15T00:36:59;8.80;1.00
1602;DHT22;794;48.592;9.634;2022-11-15T00:49:15;8.80;1.00
1602;DHT22;794;48.592;9.634;2022-11-15T00:51:43;8.70;1.00
1602;DHT22;794;48.592;9.634;2022-11-15T00:54:10;8.60;1.00
1602;DHT22;794;48.592;9.634;2022-11-15T01:01:34;8.70;1.00
1602;DHT22;794;48.592;9.634;2022-11-15T01:04:01;8.70;1.00
1602;DHT22;794;48.592;9.634;2022-11-15T01:06:30;8.60;1.00
1602;DHT22;794;48.592;9.634;2022-11-15T01:08:58;8.70;1.00
1602;DHT22;794;48.592;9.634;2022-11-15T01:11:25;8.50;1.00
1602;DHT22;794;48.592;9.634;2022-11-15T01:13:52;8.70;1.00
1602;DHT22;794;48.592;9.634;2022-11-15T01:18:51;8.40;1.00
1602;DHT22;794;48.592;9.634;2022-11-15T01:21:19;8.30;1.00
1602;DHT22;794;48.592;9.634;2022-11-15T01:26:15;8.40;1.00
1602;DHT22;794;48.592;9.634;2022-11-15T01:31:13;8.40;1.00
1602;DHT22;794;48.592;9.634;2022-11-15T01:36:12;7.90;1.00
1602;DHT22;794;48.592;9.634;2022-11-15T01:38:42;8.10;1.00
1602;DHT22;794;48.592;9.634;2022-11-15T01:41:16;7.60;1.00
1602;DHT22;794;48.592;9.634;2022-11-15T01:43:44;7.50;1.00
1602;DHT22;794;48.592;9.634;2022-11-15T01:46:23;7.60;1.00
1602;DHT22;794;48.592;9.634;2022-11-15T01:48:51;7.30;1.00
1602;DHT22;794;48.592;9.634;2022-11-15T01:51:21;7.40;1.00
1602;DHT22;794;48.592;9.634;2022-11-15T01:53:53;7.10;1.00
1602;DHT22;794;48.592;9.634;2022-11-15T01:56:25;6.90;1.00
1602;DHT22;794;48.592;9.634;2022-11-15T01:58:56;6.60;1.00
1602;DHT22;794;48.592;9.634;2022-11-15T02:01:26;7.00;1.00
1602;DHT22;794;48.592;9.634;2022-11-15T02:03:58;6.60;1.00
1602;DHT22;794;48.592;9.634;2022-11-15T02:06:26;6.80;1.00
1602;DHT22;794;48.592;9.634;2022-11-15T02:08:53;6.70;1.00
1602;DHT22;794;48.592;9.634;2022-11-15T02:11:22;6.70;1.00
1602;DHT22;794;48.592;9.634;2022-11-15T02:16:26;6.30;1.00
1602;DHT22;794;48.592;9.634;2022-11-15T02:19:00;6.30;1.00
1602;DHT22;794;48.592;9.634;2022-11-15T02:21:35;6.10;1.00
1602;DHT22;794;48.592;9.634;2022-11-15T02:24:17;6.30;1.00
1602;DHT22;794;48.592;9.634;2022-11-15T02:30:14;5.90;1.00
1602;DHT22;794;48.592;9.634;2022-11-15T02:32:47;6.20;1.00
1602;DHT22;794;48.592;9.634;2022-11-15T02:35:23;5.60;1.00
1602;DHT22;794;48.592;9.634;2022-11-15T02:37:56;5.90;1.00
1602;DHT22;794;48.592;9.634;2022-11-15T02:40:32;5.70;1.00
1602;DHT22;794;48.592;9.634;2022-11-15T02:43:06;6.00;1.00
1602;DHT22;794;48.592;9.634;2022-11-15T02:45:57;6.00;1.00
1602;DHT22;794;48.592;9.634;2022-11-15T02:48:26;5.70;1.00
1602;DHT22;794;48.592;9.634;2022-11-15T02:50:54;6.00;1.00
1602;DHT22;794;48.592;9.634;2022-11-15T02:53:24;5.50;1.00
1602;DHT22;794;48.592;9.634;2022-11-15T02:55:52;5.60;1.00
1602;DHT22;794;48.592;9.634;2022-11-15T02:58:37;5.90;1.00
1602;DHT22;794;48.592;9.634;2022-11-15T03:01:15;5.50;1.00
1602;DHT22;794;48.592;9.634;2022-11-15T03:03:55;5.80;1.00
1602;DHT22;794;48.592;9.634;2022-11-15T03:06:29;5.50;1.00
1602;DHT22;794;48.592;9.634;2022-11-15T03:09:04;5.40;1.00
1602;DHT22;794;48.592;9.634;2022-11-15T03:11:34;5.60;1.00
1602;DHT22;794;48.592;9.634;2022-11-15T03:14:11;5.50;1.00
1602;DHT22;794;48.592;9.634;2022-11-15T03:16:45;7.70;1.00
1602;DHT22;794;48.592;9.634;2022-11-15T03:19:17;5.90;1.00
1602;DHT22;794;48.592;9.634;2022-11-15T03:21:47;6.00;1.00
1602;DHT22;794;48.592;9.634;2022-11-15T03:24:16;6.00;1.00
1602;DHT22;794;48.592;9.634;2022-11-15T03:26:48;5.90;1.00
1602;DHT22;794;48.592;9.634;2022-11-15T03:29:19;6.30;1.00
1602;DHT22;794;48.592;9.634;2022-11-15T03:31:52;5.20;1.00
1602;DHT22;794;48.592;9.634;2022-11-15T03:34:25;6.90;1.00
1602;DHT22;794;48.592;9.634;2022-11-15T03:36:53;6.30;1.00
1602;DHT22;794;48.592;9.634;2022-11-15T03:39:20;6.30;1.00
1602;DHT22;794;48.592;9.634;2022-11-15T03:41:52;6.20;1.00
1602;DHT22;794;48.592;9.634;2022-11-15T03:44:33;6.60;1.00
1602;DHT22;794;48.592;9.634;2022-11-15T03:47:07;6.40;1.00
1602;DHT22;794;48.592;9.634;2022-11-15T03:49:36;6.60;1.00
1602;DHT22;794;48.592;9.634;2022-11-15T03:54:32;6.60;1.00
1602;DHT22;794;48.592;9.634;2022-11-15T03:56:59;6.20;1.00
1602;DHT22;794;48.592;9.634;2022-11-15T03:59:26;6.50;1.00
1602;DHT22;794;48.592;9.634;2022-11-15T04:04:21;6.60;1.00
1602;DHT22;794;48.592;9.634;2022-11-15T04:06:48;6.30;1.00
1602;DHT22;794;48.592;9.634;2022-11-15T04:09:15;6.40;1.00
1602;DHT22;794;48.592;9.634;2022-11-15T04:21:50;6.70;1.00
1602;DHT22;794;48.592;9.634;2022-11-15T04:24:34;6.80;1.00
1602;DHT22;794;48.592;9.634;2022-11-15T04:29:29;6.80;1.00
1602;DHT22;794;48.592;9.634;2022-11-15T04:32:02;6.90;1.00
1602;DHT22;794;48.592;9.634;2022-11-15T04:34:29;6.90;1.00
1602;DHT22;794;48.592;9.634;2022-11-15T04:36:58;6.80;1.00
1602;DHT22;794;48.592;9.634;2022-11-15T04:47:02;7.00;1.00
1602;DHT22;794;48.592;9.634;2022-11-15T04:49:29;6.90;1.00
1602;DHT22;794;48.592;9.634;2022-11-15T04:51:58;7.10;1.00
1602;DHT22;794;48.592;9.634;2022-11-15T04:56:52;7.10;1.00
1602;DHT22;794;48.592;9.634;2022-11-15T05:04:16;7.20;1.00
1602;DHT22;794;48.592;9.634;2022-11-15T05:06:46;8.50;1.00
1602;DHT22;794;48.592;9.634;2022-11-15T05:09:16;7.30;1.00
1602;DHT22;794;48.592;9.634;2022-11-15T05:11:43;7.10;1.00
1602;DHT22;794;48.592;9.634;2022-11-15T05:14:10;6.90;1.00
1602;DHT22;794;48.592;9.634;2022-11-15T05:16:37;4.50;1.00
1602;DHT22;794;48.592;9.634;2022-11-15T05:19:04;7.10;1.00
1602;DHT22;794;48.592;9.634;2022-11-15T05:21:32;8.00;1.00
1602;DHT22;794;48.592;9.634;2022-11-15T05:23:59;7.10;1.00
1602;DHT22;794;48.592;9.634;2022-11-15T05:26:28;10.20;1.00
1602;DHT22;794;48.592;9.634;2022-11-15T05:28:56;6.90;1.00
1602;DHT22;794;48.592;9.634;2022-11-15T05:31:25;6.90;1.00
1602;DHT22;794;48.592;9.634;2022-11-15T05:33:55;6.90;1.00
1602;DHT22;794;48.592;9.634;2022-11-15T05:36:29;6.90;1.00
1602;DHT22;794;48.592;9.634;2022-11-15T05:38:58;6.90;1.00
1602;DHT22;794;48.592;9.634;2022-11-15T05:41:30;6.50;1.00
1602;DHT22;794;48.592;9.634;2022-11-15T05:44:00;6.60;1.00
1602;DHT22;794;48.592;9.634;2022-11-15T05:46:28;5.90;1.00
1602;DHT22;794;48.592;9.634;2022-11-15T05:48:56;7.10;1.00
1602;DHT22;794;48.592;9.634;2022-11-15T05:51:24;6.50;1.00
1602;DHT22;794;48.592;9.634;2022-11-15T05:53:55;6.70;1.00
1602;DHT22;794;48.592;9.634;2022-11-15T05:56:23;6.40;1.00
1602;DHT22;794;48.592;9.634;2022-11-15T05:58:53;6.20;1.00
1602;DHT22;794;48.592;9.634;2022-11-15T06:01:22;6.30;1.00
1602;DHT22;794;48.592;9.634;2022-11-15T06:11:11;5.80;1.00
1602;DHT22;794;48.592;9.634;2022-11-15T06:16:07;6.10;1.00
1602;DHT22;794;48.592;9.634;2022-11-15T06:18:34;5.70;1.00
1602;DHT22;794;48.592;9.634;2022-11-15T06:23:32;5.90;1.00
1602;DHT22;794;48.592;9.634;2022-11-15T06:26:00;5.70;1.00
1602;DHT22;794;48.592;9.634;2022-11-15T06:28:30;5.90;1.00
1602;DHT22;794;48.592;9.634;2022-11-15T06:31:07;5.40;1.00
1602;DHT22;794;48.592;9.634;2022-11-15T06:36:02;5.60;1.00
1602;DHT22;794;48.592;9.634;2022-11-15T06:38:31;5.70;1.00
1602;DHT22;794;48.592;9.634;2022-11-15T06:41:01;5.60;1.00
1602;DHT22;794;48.592;9.634;2022-11-15T06:45:57;5.90;1.00
1602;DHT22;794;48.592;9.634;2022-11-15T06:48:27;5.60;1.00
1602;DHT22;794;48.592;9.634;2022-11-15T06:50:56;5.50;1.00
1602;DHT22;794;48.592;9.634;2022-11-15T06:53:24;5.40;1.00
1602;DHT22;794;48.592;9.634;2022-11-15T06:55:53;5.60;1.00
1602;DHT22;794;48.592;9.634;2022-11-15T07:05:52;5.70;1.00
1602;DHT22;794;48.592;9.634;2022-11-15T07:13:17;5.70;1.00
1602;DHT22;794;48.592;9.634;2022-11-15T07:23:09;5.70;1.00
1602;DHT22;794;48.592;9.634;2022-11-15T07:33:00;5.70;1.00
1602;DHT22;794;48.592;9.634;2022-11-15T07:35:28;5.70;1.00
1602;DHT22;794;48.592;9.634;2022-11-15T07:37:59;6.00;1.00
1602;DHT22;794;48.592;9.634;2022-11-15T07:40:30;5.80;1.00
1602;DHT22;794;48.592;9.634;2022-11-15T07:42:59;5.90;1.00
1602;DHT22;794;48.592;9.634;2022-11-15T07:47:55;5.80;1.00
1602;DHT22;794;48.592;9.634;2022-11-15T07:52:59;6.30;1.00
1602;DHT22;794;48.592;9.634;2022-11-15T07:55:28;5.90;1.00
1602;DHT22;794;48.592;9.634;2022-11-15T07:58:00;5.70;1.00
1602;DHT22;794;48.592;9.634;2022-11-15T08:03:01;6.00;1.00
1602;DHT22;794;48.592;9.634;2022-11-15T08:10:28;6.00;1.00
1602;DHT22;794;48.592;9.634;2022-11-15T08:12:58;6.20;1.00
1602;DHT22;794;48.592;9.634;2022-11-15T08:15:26;6.40;1.00
1602;DHT22;794;48.592;9.634;2022-11-15T08:17:54;6.50;1.00
1602;DHT22;794;48.592;9.634;2022-11-15T08:20:21;5.70;1.00
1602;DHT22;794;48.592;9.634;2022-11-15T08:25:17;6.80;1.00
1602;DHT22;794;48.592;9.634;2022-11-15T08:27:46;6.90;1.00
1602;DHT22;794;48.592;9.634;2022-11-15T08:40:04;7.20;1.00
1602;DHT22;794;48.592;9.634;2022-11-15T08:42:31;5.40;1.00
1602;DHT22;794;48.592;9.634;2022-11-15T08:45:00;8.50;1.00
1602;DHT22;794;48.592;9.634;2022-11-15T08:47:32;8.80;1.00
1602;DHT22;794;48.592;9.634;2022-11-15T09:02:19;10.80;1.00
1602;DHT22;794;48.592;9.634;2022-11-15T09:07:14;11.60;1.00
1602;DHT22;794;48.592;9.634;2022-11-15T09:14:38;11.70;1.00
1602;DHT22;794;48.592;9.634;2022-11-15T09:17:07;12.10;1.00
1602;DHT22;794;48.592;9.634;2022-11-15T09:19:36;12.30;1.00
1602;DHT22;794;48.592;9.634;2022-11-15T09:22:06;12.10;1.00
1602;DHT22;794;48.592;9.634;2022-11-15T09:27:03;12.80;1.00
1602;DHT22;794;48.592;9.634;2022-11-15T09:29:32;12.80;1.00
1602;DHT22;794;48.592;9.634;2022-11-15T09:36:55;13.10;1.00
1602;DHT22;794;48.592;9.634;2022-11-15T09:42:09;13.30;1.00
1602;DHT22;794;48.592;9.634;2022-11-15T09:44:52;13.40;1.00
1602;DHT22;794;48.592;9.634;2022-11-15T09:47:57;13.70;1.00
1602;DHT22;794;48.592;9.634;2022-11-15T09:50:36;13.80;1.00
1602;DHT22;794;48.592;9.634;2022-11-15T09:53:05;14.10;1.00
1602;DHT22;794;48.592;9.634;2022-11-15T09:55:45;14.30;1.00
1602;DHT22;794;48.592;9.634;2022-11-15T09:58:21;14.40;1.00
1602;DHT22;794;48.592;9.634;2022-11-15T10:00:51;13.90;1.00
1602;DHT22;794;48.592;9.634;2022-11-15T10:03:25;14.30;1.00
1602;DHT22;794;48.592;9.634;2022-11-15T10:05:56;12.40;1.00
1602;DHT22;794;48.592;9.634;2022-11-15T10:08:52;14.40;1.00
1602;DHT22;794;48.592;9.634;2022-11-15T10:11:23;14.30;1.00
1602;DHT22;794;48.592;9.634;2022-11-15T10:13:51;14.80;1.00
1602;DHT22;794;48.592;9.634;2022-11-15T10:16:36;14.90;1.00
1602;DHT22;794;48.592;9.634;2022-11-15T10:19:17;14.80;1.00
1602;DHT22;794;48.592;9.634;2022-11-15T10:21:55;15.00;1.00
1602;DHT22;794;48.592;9.634;2022-11-15T10:24:28;15.30;1.00
1602;DHT22;794;48.592;9.634;2022-11-15T10:29:26;15.40;1.00
1602;DHT22;794;48.592;9.634;2022-11-15T10:34:38;12.20;1.00
1602;DHT22;794;48.592;9.634;2022-11-15T10:39:38;15.70;1.00
1602;DHT22;794;48.592;9.634;2022-11-15T10:42:25;15.50;1.00
1602;DHT22;794;48.592;9.634;2022-11-15T10:47:30;15.60;1.00
1602;DHT22;794;48.592;9.634;2022-11-15T10:50:25;15.50;1.00
1602;DHT22;794;48.592;9.634;2022-11-15T10:52:56;15.50;1.00
1602;DHT22;794;48.592;9.634;2022-11-15T10:55:28;15.20;1.00
1602;DHT22;794;48.592;9.634;2022-11-15T10:58:21;15.20;1.00
1602;DHT22;794;48.592;9.634;2022-11-15T11:03:28;15.40;1.00
1602;DHT22;794;48.592;9.634;2022-11-15T11:06:07;15.20;1.00
1602;DHT22;794;48.592;9.634;2022-11-15T11:11:08;15.30;1.00
1602;DHT22;794;48.592;9.634;2022-11-15T11:13:39;15.30;1.00
1602;DHT22;794;48.592;9.634;2022-11-15T11:16:34;15.30;1.00
1602;DHT22;794;48.592;9.634;2022-11-15T11:19:14;15.20;1.00
1602;DHT22;794;48.592;9.634;2022-11-15T11:21:49;15.60;1.00
1602;DHT22;794;48.592;9.634;2022-11-15T11:24:24;15.20;1.00
1602;DHT22;794;48.592;9.634;2022-11-15T11:27:05;15.00;1.00
1602;DHT22;794;48.592;9.634;2022-11-15T11:29:45;15.10;1.00
1602;DHT22;794;48.592;9.634;2022-11-15T11:32:32;15.00;1.00
1602;DHT22;794;48.592;9.634;2022-11-15T11:35:08;15.20;1.00
1602;DHT22;794;48.592;9.634;2022-11-15T11:37:44;16.30;1.00
1602;DHT22;794;48.592;9.634;2022-11-15T11:40:20;15.50;1.00
1602;DHT22;794;48.592;9.634;2022-11-15T11:42:55;15.60;1.00
1602;DHT22;794;48.592;9.634;2022-11-15T11:45:41;15.40;1.00
1602;DHT22;794;48.592;9.634;2022-11-15T11:48:14;15.80;1.00
1602;DHT22;794;48.592;9.634;2022-11-15T11:50:46;15.70;1.00
1602;DHT22;794;48.592;9.634;2022-11-15T11:53:15;15.10;1.00
1602;DHT22;794;48.592;9.634;2022-11-15T11:55:47;15.40;1.00
1602;DHT22;794;48.592;9.634;2022-11-15T11:58:21;15.30;1.00
1602;DHT22;794;48.592;9.634;2022-11-15T12:00:54;13.30;1.00
1602;DHT22;794;48.592;9.634;2022-11-15T12:03:26;15.20;1.00
1602;DHT22;794;48.592;9.634;2022-11-15T12:05:59;15.50;1.00
1602;DHT22;794;48.592;9.634;2022-11-15T12:08:32;15.60;1.00
1602;DHT22;794;48.592;9.634;2022-11-15T12:11:09;15.60;1.00
1602;DHT22;794;48.592;9.634;2022-11-15T12:13:39;15.70;1.00
1602;DHT22;794;48.592;9.634;2022-11-15T12:16:18;15.60;1.00
1602;DHT22;794;48.592;9.634;2022-11-15T12:18:49;15.70;1.00
1602;DHT22;794;48.592;9.634;2022-11-15T12:21:21;15.70;1.00
1602;DHT22;794;48.592;9.634;2022-11-15T12:23:53;15.60;1.00
1602;DHT22;794;48.592;9.634;2022-11-15T12:26:25;15.50;1.00
1602;DHT22;794;48.592;9.634;2022-11-15T12:28:56;15.80;1.00
1602;DHT22;794;48.592;9.634;2022-11-15T12:31:29;15.40;1.00
1602;DHT22;794;48.592;9.634;2022-11-15T12:34:01;15.50;1.00
1602;DHT22;794;48.592;9.634;2022-11-15T12:36:36;15.60;1.00
1602;DHT22;794;48.592;9.634;2022-11-15T12:39:05;15.80;1.00
1602;DHT22;794;48.592;9.634;2022-11-15T12:41:34;15.80;1.00
1602;DHT22;794;48.592;9.634;2022-11-15T12:44:05;16.10;1.00
1602;DHT22;794;48.592;9.634;2022-11-15T12:47:04;15.80;1.00
1602;DHT22;794;48.592;9.634;2022-11-15T12:49:45;15.60;1.00
1602;DHT22;794;48.592;9.634;2022-11-15T12:52:12;15.60;1.00
1602;DHT22;794;48.592;9.634;2022-11-15T12:54:59;15.40;1.00
1602;DHT22;794;48.592;9.634;2022-11-15T12:57:38;15.40;1.00
1602;DHT22;794;48.592;9.634;2022-11-15T13:03:23;15.50;1.00
1602;DHT22;794;48.592;9.634;2022-11-15T13:06:09;15.70;1.00
1602;DHT22;794;48.592;9.634;2022-11-15T13:08:56;15.70;1.00
1602;DHT22;794;48.592;9.634;2022-11-15T13:11:46;15.80;1.00
1602;DHT22;794;48.592;9.634;2022-11-15T13:14:46;15.70;1.00
1602;DHT22;794;48.592;9.634;2022-11-15T13:17:27;15.70;1.00
1602;DHT22;794;48.592;9.634;2022-11-15T13:22:50;15.80;1.00
1602;DHT22;794;48.592;9.634;2022-11-15T13:25:53;15.70;1.00
1602;DHT22;794;48.592;9.634;2022-11-15T13:28:33;15.80;1.00
1602;DHT22;794;48.592;9.634;2022-11-15T13:31:03;15.30;1.00
1602;DHT22;794;48.592;9.634;2022-11-15T13:33:32;16.00;1.00
1602;DHT22;794;48.592;9.634;2022-11-15T13:36:03;15.60;1.00
1602;DHT22;794;48.592;9.634;2022-11-15T13:38:32;15.60;1.00
1602;DHT22;794;48.592;9.634;2022-11-15T13:41:13;15.30;1.00
1602;DHT22;794;48.592;9.634;2022-11-15T13:43:41;15.50;1.00
1602;DHT22;794;48.592;9.634;2022-11-15T13:46:13;15.50;1.00
1602;DHT22;794;48.592;9.634;2022-11-15T13:48:42;15.40;1.00
1602;DHT22;794;48.592;9.634;2022-11-15T13:51:17;15.30;1.00
1602;DHT22;794;48.592;9.634;2022-11-15T13:53:52;15.00;1.00
1602;DHT22;794;48.592;9.634;2022-11-15T14:01:21;15.20;1.00
1602;DHT22;794;48.592;9.634;2022-11-15T14:03:56;15.00;1.00
1602;DHT22;794;48.592;9.634;2022-11-15T14:06:35;15.20;1.00
1602;DHT22;794;48.592;9.634;2022-11-15T14:09:38;16.00;1.00
1602;DHT22;794;48.592;9.634;2022-11-15T14:12:25;15.20;1.00
1602;DHT22;794;48.592;9.634;2022-11-15T14:14:55;15.00;1.00
1602;DHT22;794;48.592;9.634;2022-11-15T14:17:36;15.00;1.00
1602;DHT22;794;48.592;9.634;2022-11-15T14:20:19;15.30;1.00
1602;DHT22;794;48.592;9.634;2022-11-15T14:22:55;14.90;1.00
1602;DHT22;794;48.592;9.634;2022-11-15T14:25:23;14.80;1.00
1602;DHT22;794;48.592;9.634;2022-11-15T14:28:14;13.30;1.00
1602;DHT22;794;48.592;9.634;2022-11-15T14:30:43;14.50;1.00
1602;DHT22;794;48.592;9.634;2022-11-15T14:33:22;14.50;1.00
1602;DHT22;794;48.592;9.634;2022-11-15T14:38:18;13.90;1.00
1602;DHT22;794;48.592;9.634;2022-11-15T14:48:08;13.80;1.00
1602;DHT22;794;48.592;9.634;2022-11-15T14:50:38;15.70;1.00
1602;DHT22;794;48.592;9.634;2022-11-15T14:55:35;13.90;1.00
1602;DHT22;794;48.592;9.634;2022-11-15T14:58:02;13.70;1.00
1602;DHT22;794;48.592;9.634;2022-11-15T15:00:31;13.80;1.00
1602;DHT22;794;48.592;9.634;2022-11-15T15:02:58;13.60;1.00
1602;DHT22;794;48.592;9.634;2022-11-15T15:05:31;13.40;1.00
1602;DHT22;794;48.592;9.634;2022-11-15T15:07:59;13.60;1.00
1602;DHT22;794;48.592;9.634;2022-11-15T15:10:30;13.40;1.00
1602;DHT22;794;48.592;9.634;2022-11-15T15:13:00;13.40;1.00
1602;DHT22;794;48.592;9.634;2022-11-15T15:15:32;13.20;1.00
1602;DHT22;794;48.592;9.634;2022-11-15T15:20:27;13.30;1.00
1602;DHT22;794;48.592;9.634;2022-11-15T15:25:23;12.70;1.00
1602;DHT22;794;48.592;9.634;2022-11-15T15:30:21;12.70;1.00
1602;DHT22;794;48.592;9.634;2022-11-15T15:35:16;12.70;1.00
1602;DHT22;794;48.592;9.634;2022-11-15T15:40:14;12.90;1.00
1602;DHT22;794;48.592;9.634;2022-11-15T15:45:11;12.30;1.00
1602;DHT22;794;48.592;9.634;2022-11-15T15:47:40;12.50;1.00
1602;DHT22;794;48.592;9.634;2022-11-15T15:50:20;12.60;1.00
1602;DHT22;794;48.592;9.634;2022-11-15T16:00:11;12.30;1.00
1602;DHT22;794;48.592;9.634;2022-11-15T16:02:40;12.40;1.00
1602;DHT22;794;48.592;9.634;2022-11-15T16:05:07;12.40;1.00
1602;DHT22;794;48.592;9.634;2022-11-15T16:10:04;12.10;1.00
1602;DHT22;794;48.592;9.634;2022-11-15T16:17:40;12.30;1.00
1602;DHT22;794;48.592;9.634;2022-11-15T16:20:21;12.10;1.00
1602;DHT22;794;48.592;9.634;2022-11-15T16:30:15;11.70;1.00
1602;DHT22;794;48.592;9.634;2022-11-15T16:32:45;11.50;1.00
1602;DHT22;794;48.592;9.634;2022-11-15T16:35:15;11.70;1.00
1602;DHT22;794;48.592;9.634;2022-11-15T16:40:23;11.30;1.00
1602;DHT22;794;48.592;9.634;2022-11-15T16:47:47;11.40;1.00
1602;DHT22;794;48.592;9.634;2022-11-15T16:50:19;11.20;1.00
1602;DHT22;794;48.592;9.634;2022-11-15T16:52:56;11.40;1.00
1602;DHT22;794;48.592;9.634;2022-11-15T16:55:25;11.30;1.00
1602;DHT22;794;48.592;9.634;2022-11-15T17:00:23;11.10;1.00
1602;DHT22;794;48.592;9.634;2022-11-15T17:05:22;11.30;1.00
1602;DHT22;794;48.592;9.634;2022-11-15T17:07:52;11.10;1.00
1602;DHT22;794;48.592;9.634;2022-11-15T17:10:20;11.50;1.00
1602;DHT22;794;48.592;9.634;2022-11-15T17:17:43;11.60;1.00
1602;DHT22;794;48.592;9.634;2022-11-15T17:20:16;11.50;1.00
1602;DHT22;794;48.592;9.634;2022-11-15T17:22:47;11.30;1.00
1602;DHT22;794;48.592;9.634;2022-11-15T17:30:11;10.80;1.00
1602;DHT22;794;48.592;9.634;2022-11-15T17:35:08;11.00;1.00
1602;DHT22;794;48.592;9.634;2022-11-15T17:37:39;10.90;1.00
1602;DHT22;794;48.592;9.634;2022-11-15T17:40:07;11.00;1.00
1602;DHT22;794;48.592;9.634;2022-11-15T17:42:34;10.90;1.00
1602;DHT22;794;48.592;9.634;2022-11-15T17:54:53;11.80;1.00
1602;DHT22;794;48.592;9.634;2022-11-15T18:04:43;11.30;1.00
1602;DHT22;794;48.592;9.634;2022-11-15T18:12:10;11.50;1.00
1602;DHT22;794;48.592;9.634;2022-11-15T18:14:37;12.20;1.00
1602;DHT22;794;48.592;9.634;2022-11-15T18:24:31;11.40;1.00
1602;DHT22;794;48.592;9.634;2022-11-15T18:27:00;11.30;1.00
1602;DHT22;794;48.592;9.634;2022-11-15T18:29:29;11.30;1.00
1602;DHT22;794;48.592;9.634;2022-11-15T18:34:26;11.30;1.00
1602;DHT22;794;48.592;9.634;2022-11-15T18:36:56;11.30;1.00
1602;DHT22;794;48.592;9.634;2022-11-15T18:49:14;11.20;1.00
1602;DHT22;794;48.592;9.634;2022-11-15T18:54:13;11.10;1.00
1602;DHT22;794;48.592;9.634;2022-11-15T18:56:41;11.10;1.00
1602;DHT22;794;48.592;9.634;2022-11-15T19:01:38;11.40;1.00
1602;DHT22;794;48.592;9.634;2022-11-15T19:04:11;11.00;1.00
1602;DHT22;794;48.592;9.634;2022-11-15T19:06:40;11.00;1.00
1602;DHT22;794;48.592;9.634;2022-11-15T19:09:09;10.80;1.00
1602;DHT22;794;48.592;9.634;2022-11-15T19:11:38;11.00;1.00
1602;DHT22;794;48.592;9.634;2022-11-15T19:14:07;11.10;1.00
1602;DHT22;794;48.592;9.634;2022-11-15T19:16:36;10.80;1.00
1602;DHT22;794;48.592;9.634;2022-11-15T19:19:09;10.80;1.00
1602;DHT22;794;48.592;9.634;2022-11-15T19:24:04;11.10;1.00
1602;DHT22;794;48.592;9.634;2022-11-15T19:31:29;11.00;1.00
1602;DHT22;794;48.592;9.634;2022-11-15T19:36:28;10.90;1.00
1602;DHT22;794;48.592;9.634;2022-11-15T19:38:58;10.80;1.00
1602;DHT22;794;48.592;9.634;2022-11-15T19:46:21;10.80;1.00
1602;DHT22;794;48.592;9.634;2022-11-15T19:51:19;10.80;1.00
1602;DHT22;794;48.592;9.634;2022-11-15T19:53:48;10.70;1.00
1602;DHT22;794;48.592;9.634;2022-11-15T19:56:17;10.70;1.00
1602;DHT22;794;48.592;9.634;2022-11-15T20:01:15;10.60;1.00
1602;DHT22;794;48.592;9.634;2022-11-15T20:06:11;10.60;1.00
1602;DHT22;794;48.592;9.634;2022-11-15T20:11:09;10.60;1.00
1602;DHT22;794;48.592;9.634;2022-11-15T20:28:24;10.60;1.00
1602;DHT22;794;48.592;9.634;2022-11-15T20:30:57;10.60;1.00
1602;DHT22;794;48.592;9.634;2022-11-15T20:43:16;10.50;1.00
1602;DHT22;794;48.592;9.634;2022-11-15T20:45:46;10.50;1.00
1602;DHT22;794;48.592;9.634;2022-11-15T20:55:38;10.40;1.00
1602;DHT22;794;48.592;9.634;2022-11-15T21:03:03;10.90;1.00
1602;DHT22;794;48.592;9.634;2022-11-15T21:05:32;11.00;1.00
1602;DHT22;794;48.592;9.634;2022-11-15T21:13:12;10.90;1.00
1602;DHT22;794;48.592;9.634;2022-11-15T21:15:39;10.80;1.00
1602;DHT22;794;48.592;9.634;2022-11-15T21:18:07;11.00;1.00
1602;DHT22;794;48.592;9.634;2022-11-15T21:25:31;11.00;1.00
1602;DHT22;794;48.592;9.634;2022-11-15T21:47:39;11.00;1.00
1602;DHT22;794;48.592;9.634;2022-11-15T21:52:35;11.10;1.00
1602;DHT22;794;48.592;9.634;2022-11-15T22:07:39;11.20;1.00
1602;DHT22;794;48.592;9.634;2022-11-15T22:10:07;11.30;1.00
1602;DHT22;794;48.592;9.634;2022-11-15T22:20:11;11.20;1.00
1602;DHT22;794;48.592;9.634;2022-11-15T22:22:40;11.30;1.00
1602;DHT22;794;48.592;9.634;2022-11-15T22:32:30;11.20;1.00
1602;DHT22;794;48.592;9.634;2022-11-15T22:39:54;10.10;1.00
1602;DHT22;794;48.592;9.634;2022-11-15T22:47:17;11.00;1.00
1602;DHT22;794;48.592;9.634;2022-11-15T22:52:12;11.10;1.00
1602;DHT22;794;48.592;9.634;2022-11-15T23:04:31;11.20;1.00
1602;DHT22;794;48.592;9.634;2022-11-15T23:11:53;11.00;1.00
1602;DHT22;794;48.592;9.634;2022-11-15T23:14:43;10.80;1.00
1602;DHT22;794;48.592;9.634;2022-11-15T23:17:11;10.70;1.00
1602;DHT22;794;48.592;9.634;2022-11-15T23:22:08;11.30;1.00
1602;DHT22;794;48.592;9.634;2022-11-15T23:24:53;10.80;1.00
1602;DHT22;794;48.592;9.634;2022-11-15T23:40:14;10.60;1.00
1602;DHT22;794;48.592;9.634;2022-11-15T23:42:41;10.70;1.00
1602;DHT22;794;48.592;9.634;2022-11-15T23:45:10;10.40;1.00
1602;DHT22;794;48.592;9.634;2022-11-15T23:50:05;10.50;1.00
1602;DHT22;794;48.592;9.634;2022-11-15T23:55:00;10.60;1.00
